sensor_id;sensor_type;location;lat;lon;timestamp;pressure;altitude;pressure_sealevel;temperature;humidity
77871;BME280;67067;46.850;7.578;2023-11-18T00:00:48;96186.81;;;2.22;55.78
77871;BME280;67067;46.850;7.578;2023-11-18T00:01:54;96179.63;;;2.24;55.75
77871;BME280;67067;46.850;7.578;2023-11-18T00:02:56;96183.13;;;2.17;55.93
77871;BME280;67067;46.850;7.578;2023-11-18T00:04:00;96187.06;;;2.13;56.01
77871;BME280;67067;46.850;7.578;2023-11-18T00:05:03;96184.13;;;2.07;55.83
77871;BME280;67067;46.850;7.578;2023-11-18T00:06:05;96197.38;;;2.06;55.88
77871;BME280;67067;46.850;7.578;2023-11-18T00:07:07;96194.13;;;2.04;56.14
77871;BME280;67067;46.850;7.578;2023-11-18T00:08:11;96181.09;;;1.95;56.40
77871;BME280;67067;46.850;7.578;2023-11-18T00:09:13;96187.13;;;1.96;56.31
77871;BME280;67067;46.850;7.578;2023-11-18T00:10:16;96189.41;;;1.99;56.00
77871;BME280;67067;46.850;7.578;2023-11-18T00:11:18;96188.75;;;1.97;56.31
77871;BME280;67067;46.850;7.578;2023-11-18T00:12:22;96185.84;;;1.92;56.26
77871;BME280;67067;46.850;7.578;2023-11-18T00:13:27;96183.25;;;1.92;56.17
77871;BME280;67067;46.850;7.578;2023-11-18T00:14:31;96179.19;;;1.89;56.10
77871;BME280;67067;46.850;7.578;2023-11-18T00:15:33;96174.97;;;1.88;56.37
77871;BME280;67067;46.850;7.578;2023-11-18T00:16:37;96176.44;;;1.83;56.29
77871;BME280;67067;46.850;7.578;2023-11-18T00:17:40;96181.66;;;1.83;56.21
77871;BME280;67067;46.850;7.578;2023-11-18T00:18:47;96178.59;;;1.79;56.32
77871;BME280;67067;46.850;7.578;2023-11-18T00:19:52;96185.59;;;1.78;56.54
77871;BME280;67067;46.850;7.578;2023-11-18T00:20:57;96175.50;;;1.75;56.30
77871;BME280;67067;46.850;7.578;2023-11-18T00:22:01;96177.47;;;1.73;56.32
77871;BME280;67067;46.850;7.578;2023-11-18T00:23:03;96179.25;;;1.73;56.58
77871;BME280;67067;46.850;7.578;2023-11-18T00:24:08;96173.41;;;1.71;56.79
77871;BME280;67067;46.850;7.578;2023-11-18T00:25:10;96174.88;;;1.73;56.58
77871;BME280;67067;46.850;7.578;2023-11-18T00:26:15;96176.84;;;1.71;56.48
77871;BME280;67067;46.850;7.578;2023-11-18T00:27:20;96171.63;;;1.71;56.57
77871;BME280;67067;46.850;7.578;2023-11-18T00:28:23;96175.38;;;1.69;56.37
77871;BME280;67067;46.850;7.578;2023-11-18T00:29:25;96170.97;;;1.69;56.45
77871;BME280;67067;46.850;7.578;2023-11-18T00:30:27;96174.56;;;1.68;56.37
77871;BME280;67067;46.850;7.578;2023-11-18T00:31:29;96172.00;;;1.60;56.59
77871;BME280;67067;46.850;7.578;2023-11-18T00:32:32;96171.66;;;1.63;56.29
77871;BME280;67067;46.850;7.578;2023-11-18T00:33:36;96176.06;;;1.62;56.40
77871;BME280;67067;46.850;7.578;2023-11-18T00:34:40;96171.81;;;1.61;56.52
77871;BME280;67067;46.850;7.578;2023-11-18T00:35:42;96170.72;;;1.56;56.80
77871;BME280;67067;46.850;7.578;2023-11-18T00:36:44;96169.56;;;1.58;56.51
77871;BME280;67067;46.850;7.578;2023-11-18T00:37:45;96166.84;;;1.43;56.52
77871;BME280;67067;46.850;7.578;2023-11-18T00:38:47;96170.78;;;1.47;56.55
77871;BME280;67067;46.850;7.578;2023-11-18T00:39:50;96168.81;;;1.49;56.77
77871;BME280;67067;46.850;7.578;2023-11-18T00:40:55;96164.56;;;1.48;56.57
77871;BME280;67067;46.850;7.578;2023-11-18T00:41:59;96166.53;;;1.46;56.59
77871;BME280;67067;46.850;7.578;2023-11-18T00:43:01;96169.50;;;1.35;57.02
77871;BME280;67067;46.850;7.578;2023-11-18T00:44:04;96168.81;;;1.41;56.72
77871;BME280;67067;46.850;7.578;2023-11-18T00:45:06;96170.63;;;1.41;56.94
77871;BME280;67067;46.850;7.578;2023-11-18T00:46:09;96172.41;;;1.40;56.98
77871;BME280;67067;46.850;7.578;2023-11-18T00:47:11;96174.03;;;1.41;56.86
77871;BME280;67067;46.850;7.578;2023-11-18T00:48:13;96177.63;;;1.40;57.00
77871;BME280;67067;46.850;7.578;2023-11-18T00:49:16;96168.81;;;1.41;56.86
77871;BME280;67067;46.850;7.578;2023-11-18T00:50:19;96185.47;;;1.40;56.81
77871;BME280;67067;46.850;7.578;2023-11-18T00:51:23;96177.63;;;1.40;56.91
77871;BME280;67067;46.850;7.578;2023-11-18T00:52:25;96180.16;;;1.25;56.91
77871;BME280;67067;46.850;7.578;2023-11-18T00:53:26;96182.25;;;1.30;56.89
77871;BME280;67067;46.850;7.578;2023-11-18T00:54:28;96184.69;;;1.31;57.21
77871;BME280;67067;46.850;7.578;2023-11-18T00:55:31;96183.88;;;1.31;56.93
77871;BME280;67067;46.850;7.578;2023-11-18T00:56:33;96183.22;;;1.29;56.99
77871;BME280;67067;46.850;7.578;2023-11-18T00:57:38;96181.44;;;1.29;56.79
77871;BME280;67067;46.850;7.578;2023-11-18T00:58:43;96193.34;;;1.23;56.94
77871;BME280;67067;46.850;7.578;2023-11-18T00:59:44;96189.47;;;1.11;57.11
77871;BME280;67067;46.850;7.578;2023-11-18T01:00:46;96189.16;;;1.14;57.02
77871;BME280;67067;46.850;7.578;2023-11-18T01:01:48;96193.06;;;1.10;57.32
77871;BME280;67067;46.850;7.578;2023-11-18T01:02:52;96191.44;;;1.09;57.16
77871;BME280;67067;46.850;7.578;2023-11-18T01:03:55;96192.56;;;1.06;57.23
77871;BME280;67067;46.850;7.578;2023-11-18T01:05:00;96189.16;;;1.06;57.29
77871;BME280;67067;46.850;7.578;2023-11-18T01:06:02;96183.78;;;1.07;57.51
77871;BME280;67067;46.850;7.578;2023-11-18T01:07:08;96185.75;;;1.05;57.54
77871;BME280;67067;46.850;7.578;2023-11-18T01:08:10;96192.75;;;1.05;57.64
77871;BME280;67067;46.850;7.578;2023-11-18T01:09:14;96186.91;;;1.03;57.48
77871;BME280;67067;46.850;7.578;2023-11-18T01:10:20;96192.91;;;1.03;57.49
77871;BME280;67067;46.850;7.578;2023-11-18T01:11:21;96191.94;;;1.04;57.38
77871;BME280;67067;46.850;7.578;2023-11-18T01:12:26;96192.13;;;1.03;57.07
77871;BME280;67067;46.850;7.578;2023-11-18T01:13:28;96194.06;;;1.01;57.37
77871;BME280;67067;46.850;7.578;2023-11-18T01:14:30;96196.19;;;0.97;57.45
77871;BME280;67067;46.850;7.578;2023-11-18T01:15:34;96197.16;;;0.96;57.23
77871;BME280;67067;46.850;7.578;2023-11-18T01:16:36;96205.53;;;0.83;57.35
77871;BME280;67067;46.850;7.578;2023-11-18T01:17:38;96206.50;;;0.90;57.25
77871;BME280;67067;46.850;7.578;2023-11-18T01:18:43;96201.28;;;0.90;57.47
77871;BME280;67067;46.850;7.578;2023-11-18T01:19:45;96201.09;;;0.92;57.39
77871;BME280;67067;46.850;7.578;2023-11-18T01:20:49;96190.31;;;0.95;57.55
77871;BME280;67067;46.850;7.578;2023-11-18T01:21:51;96199.66;;;0.81;57.60
77871;BME280;67067;46.850;7.578;2023-11-18T01:22:54;96201.75;;;0.86;57.39
77871;BME280;67067;46.850;7.578;2023-11-18T01:23:56;96199.03;;;0.79;57.40
77871;BME280;67067;46.850;7.578;2023-11-18T01:24:58;96200.97;;;0.85;57.41
77871;BME280;67067;46.850;7.578;2023-11-18T01:26:01;96191.97;;;0.88;57.56
77871;BME280;67067;46.850;7.578;2023-11-18T01:27:07;96197.03;;;0.89;57.57
77871;BME280;67067;46.850;7.578;2023-11-18T01:28:13;96195.56;;;0.87;57.37
77871;BME280;67067;46.850;7.578;2023-11-18T01:29:17;96200.97;;;0.85;57.63
77871;BME280;67067;46.850;7.578;2023-11-18T01:30:19;96200.63;;;0.88;57.39
77871;BME280;67067;46.850;7.578;2023-11-18T01:31:21;96197.84;;;0.90;57.53
77871;BME280;67067;46.850;7.578;2023-11-18T01:32:23;96197.69;;;0.91;57.21
77871;BME280;67067;46.850;7.578;2023-11-18T01:33:25;96200.28;;;0.91;57.14
77871;BME280;67067;46.850;7.578;2023-11-18T01:34:28;96200.44;;;0.90;57.05
77871;BME280;67067;46.850;7.578;2023-11-18T01:35:30;96201.28;;;0.82;57.35
77871;BME280;67067;46.850;7.578;2023-11-18T01:36:33;96202.91;;;0.83;57.32
77871;BME280;67067;46.850;7.578;2023-11-18T01:37:34;96198.19;;;0.70;57.46
77871;BME280;67067;46.850;7.578;2023-11-18T01:38:37;96206.50;;;0.74;57.51
77871;BME280;67067;46.850;7.578;2023-11-18T01:39:39;96199.81;;;0.79;57.47
77871;BME280;67067;46.850;7.578;2023-11-18T01:40:40;96208.13;;;0.67;57.38
77871;BME280;67067;46.850;7.578;2023-11-18T01:41:43;96201.94;;;0.76;57.39
77871;BME280;67067;46.850;7.578;2023-11-18T01:42:45;96200.78;;;0.78;57.26
77871;BME280;67067;46.850;7.578;2023-11-18T01:43:52;96194.75;;;0.78;57.17
77871;BME280;67067;46.850;7.578;2023-11-18T01:44:55;96196.22;;;0.81;57.05
77871;BME280;67067;46.850;7.578;2023-11-18T01:46:03;96194.28;;;0.74;57.34
77871;BME280;67067;46.850;7.578;2023-11-18T01:47:07;96194.75;;;0.78;57.17
77871;BME280;67067;46.850;7.578;2023-11-18T01:48:12;96193.97;;;0.77;57.16
77871;BME280;67067;46.850;7.578;2023-11-18T01:49:15;96200.66;;;0.80;57.08
77871;BME280;67067;46.850;7.578;2023-11-18T01:50:19;96191.34;;;0.77;57.13
77871;BME280;67067;46.850;7.578;2023-11-18T01:51:22;96197.53;;;0.76;57.10
77871;BME280;67067;46.850;7.578;2023-11-18T01:52:27;96193.63;;;0.72;57.06
77871;BME280;67067;46.850;7.578;2023-11-18T01:53:36;96192.47;;;0.75;57.41
77871;BME280;67067;46.850;7.578;2023-11-18T01:54:39;96197.03;;;0.73;57.39
77871;BME280;67067;46.850;7.578;2023-11-18T01:55:47;96204.22;;;0.71;57.44
77871;BME280;67067;46.850;7.578;2023-11-18T01:56:51;96192.66;;;0.73;57.44
77871;BME280;67067;46.850;7.578;2023-11-18T01:57:54;96203.88;;;0.74;57.24
77871;BME280;67067;46.850;7.578;2023-11-18T01:58:58;96205.50;;;0.75;57.40
77871;BME280;67067;46.850;7.578;2023-11-18T02:00:01;96202.25;;;0.73;57.46
77871;BME280;67067;46.850;7.578;2023-11-18T02:13:13;96194.44;;;0.81;57.04
77871;BME280;67067;46.850;7.578;2023-11-18T02:14:26;96187.94;;;0.85;57.12
77871;BME280;67067;46.850;7.578;2023-11-18T02:15:30;96190.34;;;0.87;56.97
77871;BME280;67067;46.850;7.578;2023-11-18T02:16:33;96184.16;;;0.88;56.87
77871;BME280;67067;46.850;7.578;2023-11-18T02:17:38;96176.19;;;0.89;56.77
77871;BME280;67067;46.850;7.578;2023-11-18T02:18:41;96170.97;;;0.89;56.66
77871;BME280;67067;46.850;7.578;2023-11-18T02:19:52;96170.16;;;0.89;56.51
77871;BME280;67067;46.850;7.578;2023-11-18T02:20:55;96169.69;;;0.85;56.67
77871;BME280;67067;46.850;7.578;2023-11-18T02:22:05;96174.25;;;0.83;56.59
77871;BME280;67067;46.850;7.578;2023-11-18T02:23:09;96172.63;;;0.82;56.53
77871;BME280;67067;46.850;7.578;2023-11-18T02:24:27;96176.69;;;0.76;56.63
77871;BME280;67067;46.850;7.578;2023-11-18T02:25:33;96173.25;;;0.76;56.72
77871;BME280;67067;46.850;7.578;2023-11-18T02:26:36;96171.63;;;0.75;56.77
77871;BME280;67067;46.850;7.578;2023-11-18T02:27:38;96170.19;;;0.72;56.70
77871;BME280;67067;46.850;7.578;2023-11-18T02:28:40;96161.88;;;0.69;56.63
77871;BME280;67067;46.850;7.578;2023-11-18T02:29:44;96157.31;;;0.71;56.67
77871;BME280;67067;46.850;7.578;2023-11-18T02:30:51;96154.06;;;0.69;56.76
77871;BME280;67067;46.850;7.578;2023-11-18T02:31:59;96157.97;;;0.64;56.64
77871;BME280;67067;46.850;7.578;2023-11-18T02:34:22;96152.94;;;0.63;56.74
77871;BME280;67067;46.850;7.578;2023-11-18T02:35:30;96157.50;;;0.61;56.78
77871;BME280;67067;46.850;7.578;2023-11-18T02:36:42;96154.25;;;0.59;56.78
77871;BME280;67067;46.850;7.578;2023-11-18T02:37:48;96146.91;;;0.62;57.09
77871;BME280;67067;46.850;7.578;2023-11-18T02:38:52;96153.09;;;0.61;56.74
77871;BME280;67067;46.850;7.578;2023-11-18T02:40:01;96150.16;;;0.56;56.67
77871;BME280;67067;46.850;7.578;2023-11-18T02:41:11;96145.28;;;0.53;56.70
77871;BME280;67067;46.850;7.578;2023-11-18T02:42:14;96147.25;;;0.51;57.05
77871;BME280;67067;46.850;7.578;2023-11-18T02:43:17;96154.09;;;0.52;57.06
77871;BME280;67067;46.850;7.578;2023-11-18T02:44:21;96152.31;;;0.53;56.99
77871;BME280;67067;46.850;7.578;2023-11-18T02:45:25;96157.66;;;0.51;57.07
77871;BME280;67067;46.850;7.578;2023-11-18T02:46:28;96161.25;;;0.50;57.06
77871;BME280;67067;46.850;7.578;2023-11-18T02:47:31;96152.78;;;0.48;56.94
77871;BME280;67067;46.850;7.578;2023-11-18T02:48:35;96154.75;;;0.46;57.05
77871;BME280;67067;46.850;7.578;2023-11-18T02:49:39;96155.06;;;0.43;57.12
77871;BME280;67067;46.850;7.578;2023-11-18T02:50:41;96148.56;;;0.39;57.01
77871;BME280;67067;46.850;7.578;2023-11-18T02:51:45;96152.31;;;0.36;57.37
77871;BME280;67067;46.850;7.578;2023-11-18T02:52:49;96155.88;;;0.35;57.31
77871;BME280;67067;46.850;7.578;2023-11-18T02:53:51;96161.59;;;0.30;57.18
77871;BME280;67067;46.850;7.578;2023-11-18T02:54:53;96167.28;;;0.17;57.32
77871;BME280;67067;46.850;7.578;2023-11-18T02:55:54;96157.38;;;0.21;57.40
77871;BME280;67067;46.850;7.578;2023-11-18T02:57:03;96159.31;;;0.19;57.53
77871;BME280;67067;46.850;7.578;2023-11-18T02:58:15;96163.88;;;0.17;57.69
77871;BME280;67067;46.850;7.578;2023-11-18T02:59:19;96159.66;;;0.16;57.70
77871;BME280;67067;46.850;7.578;2023-11-18T03:00:21;96162.91;;;0.18;57.81
77871;BME280;67067;46.850;7.578;2023-11-18T03:01:25;96161.75;;;0.20;57.66
77871;BME280;67067;46.850;7.578;2023-11-18T03:02:29;96167.78;;;0.21;57.86
77871;BME280;67067;46.850;7.578;2023-11-18T03:03:33;96164.53;;;0.19;57.83
77871;BME280;67067;46.850;7.578;2023-11-18T03:04:37;96165.47;;;0.10;58.04
77871;BME280;67067;46.850;7.578;2023-11-18T03:05:38;96162.06;;;0.17;57.91
77871;BME280;67067;46.850;7.578;2023-11-18T03:06:43;96156.41;;;0.22;57.85
77871;BME280;67067;46.850;7.578;2023-11-18T03:07:45;96164.03;;;0.24;57.99
77871;BME280;67067;46.850;7.578;2023-11-18T03:08:52;96163.06;;;0.25;57.84
77871;BME280;67067;46.850;7.578;2023-11-18T03:09:54;96164.34;;;0.29;57.86
77871;BME280;67067;46.850;7.578;2023-11-18T03:10:58;96165.19;;;0.29;57.68
77871;BME280;67067;46.850;7.578;2023-11-18T03:12:00;96165.19;;;0.29;57.80
77871;BME280;67067;46.850;7.578;2023-11-18T03:13:02;96165.31;;;0.28;57.72
77871;BME280;67067;46.850;7.578;2023-11-18T03:14:04;96163.56;;;0.28;57.69
77871;BME280;67067;46.850;7.578;2023-11-18T03:15:11;96165.31;;;0.28;57.71
77871;BME280;67067;46.850;7.578;2023-11-18T03:16:13;96165.31;;;0.28;57.60
77871;BME280;67067;46.850;7.578;2023-11-18T03:17:15;96174.28;;;0.25;57.46
77871;BME280;67067;46.850;7.578;2023-11-18T03:18:17;96174.13;;;0.27;57.54
77871;BME280;67067;46.850;7.578;2023-11-18T03:19:19;96169.88;;;0.26;57.59
77871;BME280;67067;46.850;7.578;2023-11-18T03:20:22;96172.31;;;0.11;57.72
77871;BME280;67067;46.850;7.578;2023-11-18T03:21:25;96170.06;;;0.16;57.66
77871;BME280;67067;46.850;7.578;2023-11-18T03:22:28;96175.94;;;0.18;57.56
77871;BME280;67067;46.850;7.578;2023-11-18T03:23:30;96164.53;;;0.19;57.38
77871;BME280;67067;46.850;7.578;2023-11-18T03:24:32;96168.91;;;0.18;57.46
77871;BME280;67067;46.850;7.578;2023-11-18T03:25:37;96164.53;;;0.19;57.41
77871;BME280;67067;46.850;7.578;2023-11-18T03:26:39;96169.09;;;0.17;57.46
77871;BME280;67067;46.850;7.578;2023-11-18T03:27:42;96169.88;;;0.17;57.22
77871;BME280;67067;46.850;7.578;2023-11-18T03:28:44;96171.50;;;0.18;57.32
77871;BME280;67067;46.850;7.578;2023-11-18T03:29:47;96169.25;;;0.15;57.21
77871;BME280;67067;46.850;7.578;2023-11-18T03:30:51;96165.97;;;0.13;57.27
77871;BME280;67067;46.850;7.578;2023-11-18T03:31:52;96170.03;;;-0.01;57.42
77871;BME280;67067;46.850;7.578;2023-11-18T03:32:54;96170.22;;;0.06;57.27
77871;BME280;67067;46.850;7.578;2023-11-18T03:33:56;96171.00;;;0.06;57.13
77871;BME280;67067;46.850;7.578;2023-11-18T03:34:58;96177.38;;;0.04;57.16
77871;BME280;67067;46.850;7.578;2023-11-18T03:36:03;96180.63;;;0.06;57.22
77871;BME280;67067;46.850;7.578;2023-11-18T03:37:05;96178.16;;;0.04;57.17
77871;BME280;67067;46.850;7.578;2023-11-18T03:38:07;96180.44;;;-0.09;57.41
77871;BME280;67067;46.850;7.578;2023-11-18T03:39:08;96184.03;;;-0.02;57.13
77871;BME280;67067;46.850;7.578;2023-11-18T03:40:14;96178.81;;;-0.02;57.21
77871;BME280;67067;46.850;7.578;2023-11-18T03:41:16;96187.78;;;-0.04;57.06
77871;BME280;67067;46.850;7.578;2023-11-18T03:42:18;96184.50;;;-0.15;57.16
77871;BME280;67067;46.850;7.578;2023-11-18T03:43:20;96185.63;;;-0.09;57.05
77871;BME280;67067;46.850;7.578;2023-11-18T03:44:22;96182.72;;;-0.06;57.19
77871;BME280;67067;46.850;7.578;2023-11-18T03:45:26;96180.75;;;-0.04;57.07
77871;BME280;67067;46.850;7.578;2023-11-18T03:46:30;96175.88;;;-0.07;57.14
77871;BME280;67067;46.850;7.578;2023-11-18T03:47:35;96173.59;;;-0.10;57.28
77871;BME280;67067;46.850;7.578;2023-11-18T03:48:43;96184.66;;;-0.08;57.18
77871;BME280;67067;46.850;7.578;2023-11-18T03:49:45;96180.28;;;-0.07;57.34
77871;BME280;67067;46.850;7.578;2023-11-18T03:50:50;96182.25;;;-0.10;57.27
77871;BME280;67067;46.850;7.578;2023-11-18T03:51:54;96179.63;;;-0.10;57.21
77871;BME280;67067;46.850;7.578;2023-11-18T03:52:56;96173.78;;;-0.12;57.33
77871;BME280;67067;46.850;7.578;2023-11-18T03:53:58;96174.75;;;-0.13;57.34
77871;BME280;67067;46.850;7.578;2023-11-18T03:55:00;96167.41;;;-0.26;57.42
77871;BME280;67067;46.850;7.578;2023-11-18T03:56:04;96170.00;;;-0.17;57.24
77871;BME280;67067;46.850;7.578;2023-11-18T03:57:06;96164.81;;;-0.17;57.43
77871;BME280;67067;46.850;7.578;2023-11-18T03:58:10;96169.03;;;-0.16;57.22
77871;BME280;67067;46.850;7.578;2023-11-18T03:59:12;96168.72;;;-0.13;57.30
77871;BME280;67067;46.850;7.578;2023-11-18T04:00:17;96169.38;;;-0.11;57.28
77871;BME280;67067;46.850;7.578;2023-11-18T04:01:24;96171.81;;;-0.10;57.40
77871;BME280;67067;46.850;7.578;2023-11-18T04:02:31;96167.09;;;-0.06;57.34
77871;BME280;67067;46.850;7.578;2023-11-18T04:03:34;96167.75;;;-0.04;57.33
77871;BME280;67067;46.850;7.578;2023-11-18T04:04:38;96171.97;;;-0.03;57.32
77871;BME280;67067;46.850;7.578;2023-11-18T04:05:44;96170.84;;;-0.00;57.22
77871;BME280;67067;46.850;7.578;2023-11-18T04:06:45;96163.06;;;-0.00;57.39
77871;BME280;67067;46.850;7.578;2023-11-18T04:07:48;96154.91;;;0.03;57.26
77871;BME280;67067;46.850;7.578;2023-11-18T04:08:50;96161.56;;;0.05;57.15
77871;BME280;67067;46.850;7.578;2023-11-18T04:09:52;96161.25;;;0.09;57.30
77871;BME280;67067;46.850;7.578;2023-11-18T04:10:53;96163.53;;;-0.05;57.49
77871;BME280;67067;46.850;7.578;2023-11-18T04:11:55;96166.97;;;0.04;57.22
77871;BME280;67067;46.850;7.578;2023-11-18T04:12:57;96167.94;;;0.03;57.13
77871;BME280;67067;46.850;7.578;2023-11-18T04:13:59;96159.78;;;-0.11;57.34
77871;BME280;67067;46.850;7.578;2023-11-18T04:15:01;96158.31;;;-0.05;57.35
77871;BME280;67067;46.850;7.578;2023-11-18T04:16:03;96156.03;;;0.00;57.10
77871;BME280;67067;46.850;7.578;2023-11-18T04:17:08;96164.81;;;-0.01;57.11
77871;BME280;67067;46.850;7.578;2023-11-18T04:18:09;96158.00;;;-0.02;56.97
77871;BME280;67067;46.850;7.578;2023-11-18T04:19:11;96152.78;;;-0.02;56.96
77871;BME280;67067;46.850;7.578;2023-11-18T04:20:13;96158.00;;;-0.02;57.31
77871;BME280;67067;46.850;7.578;2023-11-18T04:21:17;96166.44;;;0.00;57.23
77871;BME280;67067;46.850;7.578;2023-11-18T04:22:20;96157.53;;;0.03;57.07
77871;BME280;67067;46.850;7.578;2023-11-18T04:23:24;96165.00;;;0.06;57.14
77871;BME280;67067;46.850;7.578;2023-11-18T04:24:26;96159.63;;;0.08;57.10
77871;BME280;67067;46.850;7.578;2023-11-18T04:25:30;96161.75;;;0.12;57.11
77871;BME280;67067;46.850;7.578;2023-11-18T04:26:32;96161.94;;;0.19;56.91
77871;BME280;67067;46.850;7.578;2023-11-18T04:27:34;96154.44;;;0.16;56.96
77871;BME280;67067;46.850;7.578;2023-11-18T04:28:36;96148.72;;;0.20;56.94
77871;BME280;67067;46.850;7.578;2023-11-18T04:29:38;96152.47;;;0.26;57.13
77871;BME280;67067;46.850;7.578;2023-11-18T04:30:42;96155.09;;;0.26;57.11
77871;BME280;67067;46.850;7.578;2023-11-18T04:31:44;96162.41;;;0.31;57.16
77871;BME280;67067;46.850;7.578;2023-11-18T04:32:46;96161.91;;;0.35;57.17
77871;BME280;67067;46.850;7.578;2023-11-18T04:33:48;96165.00;;;0.39;56.86
77871;BME280;67067;46.850;7.578;2023-11-18T04:34:52;96163.03;;;0.41;56.86
77871;BME280;67067;46.850;7.578;2023-11-18T04:35:55;96171.19;;;0.46;56.94
77871;BME280;67067;46.850;7.578;2023-11-18T04:37:00;96165.81;;;0.48;56.88
77871;BME280;67067;46.850;7.578;2023-11-18T04:38:02;96159.97;;;0.46;56.83
77871;BME280;67067;46.850;7.578;2023-11-18T04:39:03;96159.66;;;0.32;57.04
77871;BME280;67067;46.850;7.578;2023-11-18T04:40:06;96161.25;;;0.42;56.93
77871;BME280;67067;46.850;7.578;2023-11-18T04:41:15;96158.97;;;0.47;56.82
77871;BME280;67067;46.850;7.578;2023-11-18T04:42:16;96157.66;;;0.51;56.84
77871;BME280;67067;46.850;7.578;2023-11-18T04:43:18;96152.47;;;0.43;57.21
77871;BME280;67067;46.850;7.578;2023-11-18T04:44:40;96143.66;;;0.52;57.16
77871;BME280;67067;46.850;7.578;2023-11-18T04:45:43;96148.22;;;0.58;57.19
77871;BME280;67067;46.850;7.578;2023-11-18T04:46:46;96140.06;;;0.61;57.08
77871;BME280;67067;46.850;7.578;2023-11-18T04:47:48;96143.16;;;0.65;56.83
77871;BME280;67067;46.850;7.578;2023-11-18T04:48:52;96139.91;;;0.63;56.84
77871;BME280;67067;46.850;7.578;2023-11-18T04:49:56;96147.53;;;0.64;56.85
77871;BME280;67067;46.850;7.578;2023-11-18T04:50:58;96141.53;;;0.64;56.80
77871;BME280;67067;46.850;7.578;2023-11-18T04:52:00;96141.03;;;0.69;56.79
77871;BME280;67067;46.850;7.578;2023-11-18T04:53:04;96141.66;;;0.71;56.85
77871;BME280;67067;46.850;7.578;2023-11-18T04:54:10;96150.13;;;0.73;56.88
77871;BME280;67067;46.850;7.578;2023-11-18T04:55:12;96150.97;;;0.73;56.66
77871;BME280;67067;46.850;7.578;2023-11-18T04:56:15;96140.03;;;0.70;56.57
77871;BME280;67067;46.850;7.578;2023-11-18T04:57:20;96146.88;;;0.71;56.41
77871;BME280;67067;46.850;7.578;2023-11-18T04:58:22;96140.88;;;0.70;56.43
77871;BME280;67067;46.850;7.578;2023-11-18T04:59:24;96145.13;;;0.55;56.67
77871;BME280;67067;46.850;7.578;2023-11-18T05:02:07;96151.50;;;0.27;57.11
77871;BME280;67067;46.850;7.578;2023-11-18T05:03:09;96147.28;;;0.18;57.66
77871;BME280;67067;46.850;7.578;2023-11-18T05:04:13;96144.34;;;0.21;57.45
77871;BME280;67067;46.850;7.578;2023-11-18T05:05:16;96144.66;;;0.26;57.30
77871;BME280;67067;46.850;7.578;2023-11-18T05:06:21;96148.91;;;0.35;57.01
77871;BME280;67067;46.850;7.578;2023-11-18T05:07:27;96144.81;;;0.41;56.95
77871;BME280;67067;46.850;7.578;2023-11-18T05:08:33;96151.00;;;0.48;56.80
77871;BME280;67067;46.850;7.578;2023-11-18T05:09:37;96146.91;;;0.54;56.57
77871;BME280;67067;46.850;7.578;2023-11-18T05:10:39;96152.44;;;0.59;56.53
77871;BME280;67067;46.850;7.578;2023-11-18T05:11:41;96154.41;;;0.49;56.83
77871;BME280;67067;46.850;7.578;2023-11-18T05:12:43;96143.81;;;0.59;56.40
77871;BME280;67067;46.850;7.578;2023-11-18T05:13:45;96138.97;;;0.47;56.70
77871;BME280;67067;46.850;7.578;2023-11-18T05:14:47;96137.00;;;0.58;56.70
77871;BME280;67067;46.850;7.578;2023-11-18T05:15:51;96136.81;;;0.59;56.51
77871;BME280;67067;46.850;7.578;2023-11-18T05:16:57;96136.66;;;0.61;56.56
77871;BME280;67067;46.850;7.578;2023-11-18T05:17:59;96142.34;;;0.64;56.57
77871;BME280;67067;46.850;7.578;2023-11-18T05:19:01;96139.56;;;0.66;56.46
77871;BME280;67067;46.850;7.578;2023-11-18T05:20:03;96137.78;;;0.58;56.79
77871;BME280;67067;46.850;7.578;2023-11-18T05:21:06;96132.56;;;0.67;56.75
77871;BME280;67067;46.850;7.578;2023-11-18T05:22:08;96140.53;;;0.73;56.46
77871;BME280;67067;46.850;7.578;2023-11-18T05:23:11;96146.53;;;0.74;56.49
77871;BME280;67067;46.850;7.578;2023-11-18T05:24:13;96148.50;;;0.80;56.35
77871;BME280;67067;46.850;7.578;2023-11-18T05:25:19;96152.22;;;0.86;56.54
77871;BME280;67067;46.850;7.578;2023-11-18T05:26:22;96143.28;;;0.88;56.34
77871;BME280;67067;46.850;7.578;2023-11-18T05:27:25;96151.44;;;0.77;56.63
77871;BME280;67067;46.850;7.578;2023-11-18T05:28:28;96152.22;;;0.86;56.30
77871;BME280;67067;46.850;7.578;2023-11-18T05:29:31;96158.28;;;0.86;56.29
77871;BME280;67067;46.850;7.578;2023-11-18T05:30:34;96155.03;;;0.84;56.44
77871;BME280;67067;46.850;7.578;2023-11-18T05:31:38;96156.00;;;0.83;56.19
77871;BME280;67067;46.850;7.578;2023-11-18T05:32:40;96165.31;;;0.69;56.49
77871;BME280;67067;46.850;7.578;2023-11-18T05:33:43;96161.53;;;0.80;56.57
77871;BME280;67067;46.850;7.578;2023-11-18T05:34:45;96159.59;;;0.82;56.29
77871;BME280;67067;46.850;7.578;2023-11-18T05:35:47;96156.47;;;0.87;56.47
77871;BME280;67067;46.850;7.578;2023-11-18T05:36:52;96162.50;;;0.87;56.55
77871;BME280;67067;46.850;7.578;2023-11-18T05:37:59;96155.34;;;0.89;56.48
77871;BME280;67067;46.850;7.578;2023-11-18T05:39:01;96149.78;;;0.92;56.43
77871;BME280;67067;46.850;7.578;2023-11-18T05:40:03;96153.38;;;0.83;56.57
77871;BME280;67067;46.850;7.578;2023-11-18T05:41:08;96144.56;;;0.92;56.42
77871;BME280;67067;46.850;7.578;2023-11-18T05:42:18;96142.41;;;0.96;56.53
77871;BME280;67067;46.850;7.578;2023-11-18T05:43:21;96133.47;;;0.99;56.40
77871;BME280;67067;46.850;7.578;2023-11-18T05:44:23;96135.53;;;1.03;56.55
77871;BME280;67067;46.850;7.578;2023-11-18T05:45:32;96130.81;;;1.07;56.46
77871;BME280;67067;46.850;7.578;2023-11-18T05:46:49;96131.28;;;1.11;56.33
77871;BME280;67067;46.850;7.578;2023-11-18T05:47:54;96123.94;;;1.14;56.21
77871;BME280;67067;46.850;7.578;2023-11-18T05:49:02;96119.38;;;1.16;56.36
77871;BME280;67067;46.850;7.578;2023-11-18T05:50:09;96114.66;;;1.20;56.30
77871;BME280;67067;46.850;7.578;2023-11-18T05:51:11;96112.84;;;1.20;56.20
77871;BME280;67067;46.850;7.578;2023-11-18T05:52:13;96121.94;;;1.25;56.32
77871;BME280;67067;46.850;7.578;2023-11-18T05:53:15;96118.34;;;1.26;56.01
77871;BME280;67067;46.850;7.578;2023-11-18T05:54:19;96115.41;;;1.29;56.20
77871;BME280;67067;46.850;7.578;2023-11-18T05:55:24;96123.88;;;1.31;56.20
77871;BME280;67067;46.850;7.578;2023-11-18T05:56:25;96129.47;;;1.19;56.50